Terminal Aerodrome Forecast
Issued by NWS

Home | Current Version | Previous Version | Text Only | Print | Product List | Glossary On
Versions: 1 2 3 4 5 6 7 8 9 10 11 12 13
980
FTUS42 KILM 111725
TAFCRE
TAF
KCRE 111725Z 1118/1218 28008KT P6SM SKC
     FM112300 23002KT P6SM SCT250
     FM120700 05005KT P6SM OVC050
     FM121400 06008KT 5SM -RA SCT010 OVC015
     FM121700 03007KT 4SM -RA OVC010=

USA.gov is the U.S. government's official web portal to all federal, state and local government web resources and services.